createdAt,value
2019-04-03T00:01:04.711Z,101365.86
2019-04-03T00:03:34.543Z,101369.33
2019-04-03T00:06:05.599Z,101362.22
2019-04-03T00:08:37.078Z,101358.95
2019-04-03T00:11:09.435Z,101353.91
2019-04-03T00:13:41.453Z,101357.32
2019-04-03T00:16:10.206Z,101357.83
2019-04-03T00:18:40.776Z,101357.05
2019-04-03T00:21:10.429Z,101350.88
2019-04-03T00:23:40.042Z,101350.05
2019-04-03T00:26:09.995Z,101348.34
2019-04-03T00:28:40.404Z,101346.71
2019-04-03T00:31:10.025Z,101347.58
2019-04-03T00:33:39.681Z,101338.30
2019-04-03T00:36:10.678Z,101331.63
2019-04-03T00:38:40.284Z,101329.19
2019-04-03T00:41:10.258Z,101325.48
2019-04-03T00:43:39.892Z,101322.95
2019-04-03T00:46:09.507Z,101320.34
2019-04-03T00:48:39.156Z,101313.17
2019-04-03T00:51:09.391Z,101310.70
2019-04-03T00:53:39.708Z,101309.91
2019-04-03T00:56:09.361Z,101315.08
2019-04-03T00:58:43.215Z,101309.67
2019-04-03T01:01:13.520Z,101306.44
2019-04-03T01:03:43.264Z,101299.83
2019-04-03T01:06:13.844Z,101302.00
2019-04-03T01:08:43.532Z,101300.73
2019-04-03T01:11:13.440Z,101298.70
2019-04-03T01:13:43.116Z,101299.53
2019-04-03T01:16:12.759Z,101307.14
2019-04-03T01:18:44.076Z,101293.72
2019-04-03T01:21:13.691Z,101290.89
2019-04-03T01:23:43.599Z,101301.90
2019-04-03T01:26:14.132Z,101296.06
2019-04-03T01:28:43.820Z,101296.06
2019-04-03T01:31:14.855Z,101292.36
2019-04-03T01:33:46.889Z,101289.82
2019-04-03T01:36:17.691Z,101286.39
2019-04-03T01:38:49.604Z,101284.69
2019-04-03T01:41:21.262Z,101280.52
2019-04-03T01:43:53.378Z,101278.45
2019-04-03T01:46:22.763Z,101265.41
2019-04-03T01:48:53.055Z,101274.81
2019-04-03T01:51:23.038Z,101271.04
2019-04-03T01:53:54.297Z,101265.13
2019-04-03T01:56:24.833Z,101267.77
2019-04-03T01:58:54.398Z,101267.87
2019-04-03T02:01:25.914Z,101270.34
2019-04-03T02:03:55.738Z,101265.27
2019-04-03T02:06:25.329Z,101257.33
2019-04-03T02:08:54.951Z,101258.30
2019-04-03T02:11:24.777Z,101252.12
2019-04-03T02:13:54.584Z,101247.92
2019-04-03T02:16:24.184Z,101249.19
2019-04-03T02:18:55.463Z,101243.62
2019-04-03T02:21:27.780Z,101238.55
2019-04-03T02:24:00.851Z,101242.52
2019-04-03T02:26:32.527Z,101236.21
2019-04-03T02:29:04.274Z,101233.28
2019-04-03T02:31:33.358Z,101232.48
2019-04-03T02:34:04.090Z,101230.37
2019-04-03T02:36:33.723Z,101229.20
2019-04-03T02:39:04.011Z,101238.14
2019-04-03T02:41:36.462Z,101228.91
2019-04-03T02:44:07.458Z,101228.07
2019-04-03T02:46:37.100Z,101221.34
2019-04-03T02:49:09.682Z,101222.30
2019-04-03T02:51:40.408Z,101211.06
2019-04-03T02:54:27.872Z,101208.28
2019-04-03T02:56:59.224Z,101214.22
2019-04-03T02:59:28.849Z,101211.28
2019-04-03T03:01:58.808Z,101214.22
2019-04-03T03:04:28.516Z,101217.16
2019-04-03T03:06:58.123Z,101215.45
2019-04-03T03:09:28.167Z,101215.92
2019-04-03T03:11:58.392Z,101221.85
2019-04-03T03:14:29.350Z,101218.95
2019-04-03T03:17:00.173Z,101213.05
2019-04-03T03:19:31.765Z,101214.81
2019-04-03T03:22:02.393Z,101217.38
2019-04-03T03:24:35.220Z,101210.20
2019-04-03T03:27:08.076Z,101209.38
2019-04-03T03:29:37.144Z,101212.00
2019-04-03T03:32:15.742Z,101209.44
2019-04-03T03:34:55.056Z,101210.34
2019-04-03T03:37:13.119Z,101197.73
2019-04-03T03:39:44.247Z,101188.47
2019-04-03T03:42:15.330Z,101191.94
2019-04-03T03:44:46.989Z,101181.06
2019-04-03T03:47:18.270Z,101177.03
2019-04-03T03:49:50.714Z,101182.98
2019-04-03T03:52:21.168Z,101183.95
2019-04-03T03:54:52.275Z,101182.73
2019-04-03T03:57:22.476Z,101187.40
2019-04-03T03:59:52.786Z,101177.28
2019-04-03T04:02:22.806Z,101182.77
2019-04-03T04:04:52.706Z,101183.14
2019-04-03T04:07:22.698Z,101185.58
2019-04-03T04:09:53.234Z,101187.62
2019-04-03T04:12:23.452Z,101191.75
2019-04-03T04:14:56.077Z,101188.45
2019-04-03T04:17:25.045Z,101190.20
2019-04-03T04:19:54.992Z,101184.41
2019-04-03T04:22:27.368Z,101184.00
2019-04-03T04:24:57.160Z,101183.27
2019-04-03T04:27:28.639Z,101186.31
2019-04-03T04:29:58.297Z,101188.02
2019-04-03T04:32:27.925Z,101191.38
2019-04-03T04:34:57.543Z,101178.38
2019-04-03T04:37:27.300Z,101174.19
2019-04-03T04:39:59.576Z,101175.05
2019-04-03T04:42:28.991Z,101179.99
2019-04-03T04:44:58.657Z,101184.56
2019-04-03T04:47:30.029Z,101187.09
2019-04-03T04:50:01.231Z,101180.08
2019-04-03T04:52:31.240Z,101188.85
2019-04-03T04:55:02.250Z,101181.26
2019-04-03T04:57:32.532Z,101189.59
2019-04-03T05:00:02.300Z,101185.39
2019-04-03T05:02:31.981Z,101187.84
2019-04-03T05:05:01.813Z,101190.36
2019-04-03T05:07:31.506Z,101193.27
2019-04-03T05:10:01.145Z,101196.59
2019-04-03T05:12:30.808Z,101199.84
2019-04-03T05:15:00.483Z,101197.66
2019-04-03T05:17:30.092Z,101195.92
2019-04-03T05:19:59.806Z,101186.53
2019-04-03T05:22:29.672Z,101183.84
2019-04-03T05:25:00.056Z,101183.31
2019-04-03T05:27:29.767Z,101174.35
2019-04-03T05:29:59.460Z,101178.98
2019-04-03T05:32:29.741Z,101183.62
2019-04-03T05:34:59.455Z,101188.98
2019-04-03T05:37:29.454Z,101184.16
2019-04-03T05:39:59.147Z,101190.77
2019-04-03T05:42:29.513Z,101192.73
2019-04-03T05:44:59.434Z,101190.10
2019-04-03T05:47:29.323Z,101187.47
2019-04-03T05:49:59.025Z,101196.20
2019-04-03T05:52:28.683Z,101198.63
2019-04-03T05:54:58.294Z,101190.59
2019-04-03T05:57:29.467Z,101184.66
2019-04-03T06:00:01.843Z,101186.03
2019-04-03T06:02:30.724Z,101184.23
2019-04-03T06:05:00.399Z,101182.47
2019-04-03T06:07:31.238Z,101174.33
2019-04-03T06:10:00.853Z,101169.88
2019-04-03T06:12:30.474Z,101165.51
2019-04-03T06:15:00.169Z,101167.06
2019-04-03T06:17:30.576Z,101161.50
2019-04-03T06:20:00.205Z,101159.73
2019-04-03T06:22:29.865Z,101159.30
2019-04-03T06:24:59.499Z,101160.99
2019-04-03T06:27:29.615Z,101168.13
2019-04-03T06:29:59.675Z,101169.50
2019-04-03T06:32:30.222Z,101172.07
2019-04-03T06:35:00.442Z,101175.87
2019-04-03T06:37:30.154Z,101174.61
2019-04-03T06:40:02.311Z,101179.20
2019-04-03T06:42:31.581Z,101182.94
2019-04-03T06:45:01.255Z,101183.70
2019-04-03T06:47:32.249Z,101179.91
2019-04-03T06:50:02.260Z,101180.70
2019-04-03T06:52:32.003Z,101170.45
2019-04-03T06:55:03.330Z,101172.05
2019-04-03T06:57:33.037Z,101170.41
2019-04-03T07:00:02.751Z,101173.92
2019-04-03T07:02:32.463Z,101171.03
2019-04-03T07:05:02.969Z,101176.83
2019-04-03T07:07:35.048Z,101174.77
2019-04-03T07:10:08.877Z,101178.09
2019-04-03T07:12:37.517Z,101175.52
2019-04-03T07:15:08.808Z,101179.66
2019-04-03T07:17:38.436Z,101172.55
2019-04-03T07:20:14.557Z,101172.05
2019-04-03T07:22:39.734Z,101168.53
2019-04-03T07:25:09.567Z,101176.40
2019-04-03T07:27:41.790Z,101169.45
2019-04-03T07:30:11.570Z,101168.36
2019-04-03T07:32:41.630Z,101167.70
2019-04-03T07:35:11.400Z,101173.50
2019-04-03T07:37:41.093Z,101171.14
2019-04-03T07:40:11.894Z,101168.81
2019-04-03T07:42:41.801Z,101168.66
2019-04-03T07:45:11.900Z,101170.26
2019-04-03T07:47:41.647Z,101173.19
2019-04-03T07:50:12.244Z,101170.22
2019-04-03T07:52:42.011Z,101171.41
2019-04-03T07:55:12.320Z,101171.77
2019-04-03T07:57:42.118Z,101163.88
2019-04-03T08:00:15.683Z,101167.02
2019-04-03T08:02:48.206Z,101168.46
2019-04-03T08:05:16.622Z,101161.92
2019-04-03T08:07:47.336Z,101163.78
2019-04-03T08:10:17.468Z,101162.23
2019-04-03T08:12:47.252Z,101159.86
2019-04-03T08:15:17.179Z,101160.52
2019-04-03T08:17:49.196Z,101156.47
2019-04-03T08:20:20.068Z,101159.33
2019-04-03T08:22:49.675Z,101160.16
2019-04-03T08:25:19.675Z,101161.39
2019-04-03T08:27:49.892Z,101161.63
2019-04-03T08:30:20.098Z,101160.27
2019-04-03T08:32:49.787Z,101160.58
2019-04-03T08:35:23.380Z,101160.48
2019-04-03T08:37:52.562Z,101162.91
2019-04-03T08:40:22.193Z,101158.09
2019-04-03T08:42:52.384Z,101162.05
2019-04-03T08:45:22.796Z,101162.76
2019-04-03T08:47:52.418Z,101164.30
2019-04-03T08:50:22.046Z,101166.27
2019-04-03T08:52:51.725Z,101160.98
2019-04-03T08:55:21.590Z,101162.08
2019-04-03T08:57:52.516Z,101158.89
2019-04-03T09:00:24.249Z,101137.93
2019-04-03T09:02:54.107Z,101150.83
2019-04-03T09:05:24.525Z,101153.14
2019-04-03T09:07:56.101Z,101151.16
2019-04-03T09:10:25.645Z,101145.81
2019-04-03T09:12:55.558Z,101157.83
2019-04-03T09:15:28.673Z,101142.63
2019-04-03T09:17:58.476Z,101142.36
2019-04-03T09:20:28.195Z,101145.16
2019-04-03T09:22:59.406Z,101140.81
2019-04-03T09:25:31.590Z,101146.47
2019-04-03T09:28:04.034Z,101148.30
2019-04-03T09:30:33.920Z,101142.96
2019-04-03T09:33:04.344Z,101138.78
2019-04-03T09:35:34.346Z,101143.48
2019-04-03T09:38:04.660Z,101134.67
2019-04-03T09:40:38.351Z,101133.41
2019-04-03T09:43:07.182Z,101128.39
2019-04-03T09:45:37.842Z,101130.51
2019-04-03T09:48:07.763Z,101129.86
2019-04-03T09:50:37.451Z,101126.13
2019-04-03T09:53:09.141Z,101128.73
2019-04-03T09:55:38.779Z,101129.80
2019-04-03T09:58:09.990Z,101122.78
2019-04-03T10:00:41.386Z,101124.20
2019-04-03T10:03:11.005Z,101128.26
2019-04-03T10:05:41.277Z,101124.13
2019-04-03T10:08:11.411Z,101123.38
2019-04-03T10:10:41.445Z,101121.00
2019-04-03T10:13:11.182Z,101121.08
2019-04-03T10:15:40.887Z,101120.00
2019-04-03T10:18:12.097Z,101114.78
2019-04-03T10:20:41.978Z,101110.70
2019-04-03T10:23:12.241Z,101110.27
2019-04-03T10:25:41.883Z,101112.89
2019-04-03T10:28:13.655Z,101104.91
2019-04-03T10:30:43.108Z,101107.69
2019-04-03T10:33:13.120Z,101106.48
2019-04-03T10:35:42.931Z,101108.16
2019-04-03T10:38:12.684Z,101109.11
2019-04-03T10:40:42.687Z,101102.47
2019-04-03T10:43:12.336Z,101105.43
2019-04-03T10:45:42.085Z,101103.31
2019-04-03T10:48:11.791Z,101102.36
2019-04-03T10:50:41.446Z,101097.47
2019-04-03T10:53:11.698Z,101097.52
2019-04-03T10:55:41.445Z,101099.28
2019-04-03T10:58:11.068Z,101090.76
2019-04-03T11:00:41.640Z,101107.86
2019-04-03T11:03:12.184Z,101097.73
2019-04-03T11:05:41.894Z,101091.48
2019-04-03T11:08:11.614Z,101087.38
2019-04-03T11:10:41.313Z,101088.34
2019-04-03T11:13:11.132Z,101087.26
2019-04-03T11:15:44.139Z,101080.44
2019-04-03T11:18:12.243Z,101078.91
2019-04-03T11:20:42.841Z,101073.52
2019-04-03T11:23:12.598Z,101079.20
2019-04-03T11:25:42.332Z,101080.95
2019-04-03T11:28:12.463Z,101075.70
2019-04-03T11:30:42.449Z,101069.52
2019-04-03T11:33:13.579Z,101065.58
2019-04-03T11:35:43.902Z,101065.77
2019-04-03T11:38:21.036Z,101065.97
2019-04-03T11:40:45.448Z,101064.95
2019-04-03T11:43:15.396Z,101069.80
2019-04-03T11:45:45.165Z,101058.53
2019-04-03T11:48:16.955Z,101062.17
2019-04-03T11:50:46.769Z,101057.09
2019-04-03T11:53:16.493Z,101047.01
2019-04-03T11:55:46.125Z,101053.03
2019-04-03T11:58:16.180Z,101062.53
2019-04-03T12:00:48.041Z,101052.88
2019-04-03T12:03:17.915Z,101053.68
2019-04-03T12:05:48.339Z,101053.45
2019-04-03T12:08:18.131Z,101050.67
2019-04-03T12:10:48.185Z,101044.19
2019-04-03T12:13:20.800Z,101059.47
2019-04-03T12:15:52.141Z,101045.83
2019-04-03T12:18:20.797Z,101042.75
2019-04-03T12:20:50.563Z,101042.30
2019-04-03T12:23:21.380Z,101036.27
2019-04-03T12:25:51.224Z,101034.33
2019-04-03T12:28:21.834Z,101034.44
2019-04-03T12:30:51.437Z,101022.00
2019-04-03T12:33:21.715Z,101023.33
2019-04-03T12:35:51.781Z,101017.55
2019-04-03T12:38:22.433Z,101013.36
2019-04-03T12:40:52.848Z,101017.51
2019-04-03T12:43:22.496Z,101025.33
2019-04-03T12:45:52.261Z,101009.91
2019-04-03T12:48:22.250Z,101004.03
2019-04-03T12:50:52.202Z,101008.52
2019-04-03T12:53:22.339Z,101000.41
2019-04-03T12:55:52.372Z,101000.88
2019-04-03T12:58:22.741Z,101001.84
2019-04-03T13:00:53.969Z,101001.91
2019-04-03T13:03:24.671Z,100998.50
2019-04-03T13:05:57.593Z,101006.52
2019-04-03T13:08:27.296Z,100995.95
2019-04-03T13:10:57.183Z,100990.83
2019-04-03T13:13:28.379Z,100994.11
2019-04-03T13:15:58.329Z,100999.39
2019-04-03T13:18:28.231Z,100990.48
2019-04-03T13:20:57.876Z,100991.95
2019-04-03T13:23:27.699Z,100981.02
2019-04-03T13:25:57.472Z,100981.89
2019-04-03T13:28:27.172Z,100990.50
2019-04-03T13:30:57.409Z,100983.02
2019-04-03T13:33:27.195Z,100983.02
2019-04-03T13:35:57.261Z,100978.02
2019-04-03T13:38:28.897Z,100978.02
2019-04-03T13:40:58.705Z,100977.27
2019-04-03T13:43:28.349Z,100971.80
2019-04-03T13:45:59.083Z,100983.55
2019-04-03T13:48:28.788Z,100979.28
2019-04-03T13:50:59.123Z,100966.88
2019-04-03T13:53:29.923Z,100975.17
2019-04-03T13:56:00.052Z,100976.63
2019-04-03T13:58:30.905Z,100974.22
2019-04-03T14:01:02.778Z,100970.50
2019-04-03T14:03:32.027Z,100966.09
2019-04-03T14:06:03.566Z,100955.96
2019-04-03T14:08:33.229Z,100945.48
2019-04-03T14:11:03.041Z,100945.48
2019-04-03T14:13:32.739Z,100956.27
2019-04-03T14:16:02.679Z,100955.87
2019-04-03T14:18:32.319Z,100951.23
2019-04-03T14:21:02.460Z,101015.01
2019-04-03T14:23:32.935Z,100947.19
2019-04-03T14:26:06.998Z,100951.47
2019-04-03T14:28:35.590Z,100956.92
2019-04-03T14:31:05.896Z,100949.09
2019-04-03T14:33:43.587Z,100953.05
2019-04-03T14:36:07.129Z,100951.20
2019-04-03T14:38:36.793Z,100946.94
2019-04-03T14:41:06.428Z,100948.31
2019-04-03T14:43:36.131Z,100934.28
2019-04-03T14:46:06.433Z,100934.11
2019-04-03T14:48:36.253Z,100935.58
2019-04-03T14:51:07.200Z,100935.78
2019-04-03T14:53:37.415Z,100942.27
2019-04-03T14:56:07.282Z,100941.67
2019-04-03T14:58:37.127Z,100948.81
2019-04-03T15:01:06.857Z,100940.33
2019-04-03T15:03:37.310Z,100934.52
2019-04-03T15:06:06.962Z,100932.63
2019-04-03T15:08:38.337Z,100932.29
2019-04-03T15:11:08.891Z,100936.69
2019-04-03T15:13:38.793Z,100933.22
2019-04-03T15:16:08.819Z,100938.47
2019-04-03T15:18:39.971Z,100927.50
2019-04-03T15:21:12.734Z,100931.19
2019-04-03T15:23:43.333Z,100932.36
2019-04-03T15:26:12.963Z,100921.27
2019-04-03T15:28:42.602Z,100929.12
2019-04-03T15:31:14.308Z,100919.91
2019-04-03T15:33:44.044Z,100928.48
2019-04-03T15:36:13.679Z,100925.98
2019-04-03T15:38:45.206Z,100922.69
2019-04-03T15:41:14.955Z,100929.77
2019-04-03T15:43:46.638Z,100921.36
2019-04-03T15:46:16.223Z,100923.94
2019-04-03T15:48:46.632Z,100925.52
2019-04-03T15:51:16.727Z,100932.01
2019-04-03T15:53:46.939Z,100925.78
2019-04-03T15:56:17.764Z,100925.41
2019-04-03T15:58:48.642Z,100924.73
2019-04-03T16:01:18.807Z,100922.92
2019-04-03T16:03:49.528Z,100930.62
2019-04-03T16:06:20.274Z,100928.22
2019-04-03T16:08:50.169Z,100919.48
2019-04-03T16:11:19.840Z,100919.22
2019-04-03T16:13:50.124Z,100924.97
2019-04-03T16:16:20.579Z,100926.02
2019-04-03T16:18:50.627Z,100918.52
2019-04-03T16:21:23.658Z,100922.81
2019-04-03T16:23:52.966Z,100929.24
2019-04-03T16:26:23.880Z,100930.56
2019-04-03T16:28:56.510Z,100923.53
2019-04-03T16:31:26.202Z,100927.94
2019-04-03T16:33:55.855Z,100926.05
2019-04-03T16:36:25.778Z,100929.17
2019-04-03T16:38:55.460Z,100926.27
2019-04-03T16:41:25.610Z,100934.54
2019-04-03T16:43:55.314Z,100927.97
2019-04-03T16:46:27.678Z,100935.44
2019-04-03T16:48:57.792Z,100943.00
2019-04-03T16:51:31.768Z,100937.94
2019-04-03T16:54:02.011Z,100941.28
2019-04-03T16:56:31.629Z,100942.79
2019-04-03T16:59:01.567Z,100935.98
2019-04-03T17:01:31.941Z,100940.15
2019-04-03T17:04:04.357Z,100942.00
2019-04-03T17:06:33.724Z,100943.90
2019-04-03T17:09:05.772Z,100937.97
2019-04-03T17:11:35.902Z,100936.41
2019-04-03T17:14:06.182Z,100939.59
2019-04-03T17:16:37.392Z,100940.48
2019-04-03T17:19:07.581Z,100940.28
2019-04-03T17:21:39.389Z,100941.75
2019-04-03T17:24:08.726Z,100942.70
2019-04-03T17:26:48.845Z,100948.25
2019-04-03T17:29:13.543Z,100949.75
2019-04-03T17:31:41.111Z,100956.82
2019-04-03T17:34:10.742Z,100948.97
2019-04-03T17:36:40.386Z,100963.94
2019-04-03T17:39:11.442Z,100962.70
2019-04-03T17:41:41.081Z,100960.67
2019-04-03T17:44:12.007Z,100968.94
2019-04-03T17:46:42.113Z,100966.21
2019-04-03T17:49:11.763Z,100967.44
2019-04-03T17:51:41.992Z,100976.25
2019-04-03T17:54:13.819Z,100980.03
2019-04-03T17:56:43.680Z,100979.37
2019-04-03T17:59:13.453Z,100978.38
2019-04-03T18:01:43.216Z,100984.36
2019-04-03T18:04:12.922Z,100982.45
2019-04-03T18:06:42.563Z,100983.36
2019-04-03T18:09:12.470Z,100983.81
2019-04-03T18:11:42.811Z,100983.30
2019-04-03T18:14:12.618Z,100982.67
2019-04-03T18:16:42.282Z,100990.55
2019-04-03T18:19:11.982Z,100989.92
2019-04-03T18:21:41.634Z,100987.72
2019-04-03T18:24:11.332Z,100993.14
2019-04-03T18:26:40.973Z,100989.50
2019-04-03T18:29:10.605Z,100986.19
2019-04-03T18:31:40.772Z,100981.64
2019-04-03T18:34:10.478Z,100987.74
2019-04-03T18:36:40.110Z,100984.92
2019-04-03T18:39:11.089Z,100987.79
2019-04-03T18:41:40.793Z,100983.31
2019-04-03T18:44:21.507Z,100986.03
2019-04-03T18:46:41.798Z,100985.77
2019-04-03T18:49:11.507Z,100986.05
2019-04-03T18:51:41.482Z,100988.52
2019-04-03T18:54:12.177Z,100989.91
2019-04-03T18:56:42.030Z,100985.06
2019-04-03T18:59:11.735Z,100990.27
2019-04-03T19:01:41.408Z,100991.73
2019-04-03T19:04:11.118Z,100990.72
2019-04-03T19:06:40.767Z,100989.17
2019-04-03T19:09:10.544Z,100988.00
2019-04-03T19:11:40.977Z,100992.18
2019-04-03T19:14:11.212Z,100985.52
2019-04-03T19:16:46.351Z,100986.91
2019-04-03T19:19:12.252Z,100986.80
2019-04-03T19:21:41.910Z,100990.78
2019-04-03T19:24:11.585Z,100993.08
2019-04-03T19:26:41.219Z,100988.86
2019-04-03T19:29:10.849Z,100991.22
2019-04-03T19:31:40.773Z,100988.47
2019-04-03T19:34:10.561Z,100985.75
2019-04-03T19:36:42.958Z,100985.83
2019-04-03T19:39:11.573Z,100984.73
2019-04-03T19:41:42.755Z,100978.89
2019-04-03T19:44:12.898Z,100990.73
2019-04-03T19:46:42.567Z,100981.22
2019-04-03T19:49:12.207Z,100982.83
2019-04-03T19:51:41.840Z,100985.79
2019-04-03T19:54:12.081Z,100986.03
2019-04-03T19:56:41.715Z,100987.83
2019-04-03T19:59:11.377Z,100988.70
2019-04-03T20:01:41.041Z,100990.94
2019-04-03T20:04:10.676Z,100988.80
2019-04-03T20:06:40.315Z,100991.89
2019-04-03T20:09:10.351Z,100988.59
2019-04-03T20:11:40.456Z,100993.41
2019-04-03T20:14:12.001Z,100996.41
2019-04-03T20:16:41.735Z,100988.98
2019-04-03T20:19:11.370Z,100986.63
2019-04-03T20:21:41.000Z,100981.36
2019-04-03T20:24:12.652Z,100981.66
2019-04-03T20:26:42.005Z,100981.38
2019-04-03T20:29:11.639Z,100974.78
2019-04-03T20:31:41.326Z,100973.77
2019-04-03T20:34:13.092Z,100972.18
2019-04-03T20:36:42.307Z,100967.01
2019-04-03T20:39:11.991Z,100967.01
2019-04-03T20:41:41.641Z,100963.91
2019-04-03T20:44:11.285Z,100961.46
2019-04-03T20:46:40.999Z,100955.81
2019-04-03T20:49:10.644Z,100962.73
2019-04-03T20:51:40.428Z,100963.19
2019-04-03T20:54:11.765Z,100961.53
2019-04-03T20:56:41.743Z,100969.19
2019-04-03T20:59:12.163Z,100961.97
2019-04-03T21:01:41.961Z,100964.24
2019-04-03T21:04:14.613Z,100961.97
2019-04-03T21:06:43.684Z,100964.02
2019-04-03T21:09:13.727Z,100967.45
2019-04-03T21:11:43.385Z,100964.31
2019-04-03T21:14:13.018Z,100961.92
2019-04-03T21:16:42.860Z,100962.91
2019-04-03T21:19:12.957Z,100956.31
2019-04-03T21:21:42.592Z,100952.27
2019-04-03T21:24:12.255Z,100956.71
2019-04-03T21:26:42.360Z,100957.48
2019-04-03T21:29:12.013Z,100951.42
2019-04-03T21:31:41.684Z,100953.08
2019-04-03T21:34:11.312Z,100944.77
2019-04-03T21:36:41.267Z,100949.48
2019-04-03T21:39:12.844Z,100944.26
2019-04-03T21:41:42.301Z,100943.14
2019-04-03T21:44:11.909Z,100942.92
2019-04-03T21:46:41.569Z,100936.26
2019-04-03T21:49:11.200Z,100942.69
2019-04-03T21:51:41.490Z,100942.09
2019-04-03T21:54:11.213Z,100943.07
2019-04-03T21:56:41.178Z,100939.02
2019-04-03T21:59:11.434Z,100936.13
2019-04-03T22:01:41.242Z,100940.02
2019-04-03T22:04:10.875Z,100938.35
2019-04-03T22:06:40.497Z,100936.63
2019-04-03T22:09:12.402Z,100935.45
2019-04-03T22:11:42.163Z,100934.78
2019-04-03T22:14:11.937Z,100936.21
2019-04-03T22:16:41.739Z,100932.06
2019-04-03T22:19:11.514Z,100932.16
2019-04-03T22:21:41.278Z,100937.61
2019-04-03T22:24:11.007Z,100928.78
2019-04-03T22:26:41.394Z,100935.06
2019-04-03T22:29:11.481Z,100934.27
2019-04-03T22:31:41.241Z,100939.87
2019-04-03T22:34:11.073Z,100937.47
2019-04-03T22:36:41.209Z,100936.27
2019-04-03T22:39:13.667Z,100939.05
2019-04-03T22:41:43.453Z,100935.62
2019-04-03T22:44:13.246Z,100930.61
2019-04-03T22:46:43.073Z,100922.97
2019-04-03T22:49:14.183Z,100920.23
2019-04-03T22:51:43.901Z,100925.77
2019-04-03T22:54:13.773Z,100912.80
2019-04-03T22:56:43.530Z,100914.23
2019-04-03T22:59:13.234Z,100910.09
2019-04-03T23:01:42.996Z,100908.08
2019-04-03T23:04:12.768Z,100901.92
2019-04-03T23:06:42.532Z,100902.45
2019-04-03T23:09:13.596Z,100899.30
2019-04-03T23:11:43.282Z,100893.53
2019-04-03T23:14:12.974Z,100894.51
2019-04-03T23:16:44.303Z,100891.52
2019-04-03T23:19:14.068Z,100889.42
2019-04-03T23:21:43.780Z,100887.91
2019-04-03T23:24:13.506Z,100882.97
2019-04-03T23:26:43.144Z,100879.69
2019-04-03T23:29:14.268Z,100878.13
2019-04-03T23:31:45.024Z,100878.24
2019-04-03T23:34:18.748Z,100876.23
2019-04-03T23:36:47.104Z,100875.49
2019-04-03T23:39:16.818Z,100871.83
2019-04-03T23:41:46.441Z,100871.59
2019-04-03T23:44:16.148Z,100869.64
2019-04-03T23:46:47.567Z,100869.25
2019-04-03T23:49:18.222Z,100860.50
2019-04-03T23:51:49.377Z,100859.97
2019-04-03T23:54:19.114Z,100862.21
2019-04-03T23:56:48.832Z,100852.57
2019-04-03T23:59:18.576Z,100850.97
